Time;durP1;ratioP1;P1;durP2;ratioP2;P2;SDS_P1;SDS_P2;PMS_P1;PMS_P2;Temp;Humidity;BMP_temperature;BMP_pressure;BME280_temperature;BME280_humidity;BME280_pressure;Samples;Min_cycle;Max_cycle;Signal;HPM_P1;HPM_P2
2022/01/08 00:00:33;;;;;;;16.10;11.73;;;;;;;;;;5112693;28;20531;-47
2022/01/08 00:03:00;;;;;;;28.85;18.25;;;;;;;;;;5112194;28;20065;-47
2022/01/08 00:05:27;;;;;;;21.92;13.15;;;;;;;;;;5113151;28;20489;-45
2022/01/08 00:07:54;;;;;;;20.08;11.82;;;;;;;;;;5112809;28;20403;-46
2022/01/08 00:10:22;;;;;;;18.00;11.23;;;;;;;;;;5112766;28;20039;-47
2022/01/08 00:12:51;;;;;;;18.98;11.55;;;;;;;;;;5112417;28;20040;-46
2022/01/08 00:15:18;;;;;;;17.52;11.40;;;;;;;;;;5110522;28;20122;-47
2022/01/08 00:17:44;;;;;;;18.15;11.10;;;;;;;;;;5090302;28;20353;-47
2022/01/08 00:20:10;;;;;;;19.25;11.90;;;;;;;;;;5073293;28;20400;-51
2022/01/08 00:22:37;;;;;;;18.73;11.88;;;;;;;;;;5091085;28;20036;-47
2022/01/08 00:25:04;;;;;;;20.33;12.13;;;;;;;;;;5093299;28;20039;-47
2022/01/08 00:27:31;;;;;;;19.42;12.25;;;;;;;;;;5100133;28;20612;-47
2022/01/08 00:29:57;;;;;;;18.48;11.95;;;;;;;;;;5074642;28;20036;-49
2022/01/08 00:32:25;;;;;;;20.73;13.07;;;;;;;;;;5091081;28;20093;-47
2022/01/08 00:34:51;;;;;;;19.98;12.50;;;;;;;;;;5073788;28;20086;-47
2022/01/08 00:37:17;;;;;;;19.80;12.55;;;;;;;;;;5091701;28;20105;-46
2022/01/08 00:39:47;;;;;;;21.63;13.45;;;;;;;;;;5091710;28;20047;-48
2022/01/08 00:42:13;;;;;;;23.38;12.52;;;;;;;;;;5090594;28;20679;-48
2022/01/08 00:44:39;;;;;;;18.70;12.48;;;;;;;;;;5091289;28;20032;-45
2022/01/08 00:47:05;;;;;;;22.40;13.05;;;;;;;;;;5091518;28;20568;-46
2022/01/08 00:49:32;;;;;;;21.50;13.43;;;;;;;;;;5091488;28;20529;-46
2022/01/08 00:51:58;;;;;;;18.15;13.02;;;;;;;;;;5072757;28;20509;-48
2022/01/08 00:54:25;;;;;;;22.50;14.18;;;;;;;;;;5098702;28;20485;-49
2022/01/08 00:56:51;;;;;;;20.50;12.95;;;;;;;;;;5091141;28;20040;-46
2022/01/08 00:59:28;;;;;;;21.35;12.75;;;;;;;;;;5090697;28;20171;-46
2022/01/08 01:01:54;;;;;;;18.52;13.00;;;;;;;;;;5090767;28;20043;-46
2022/01/08 01:04:20;;;;;;;21.27;13.90;;;;;;;;;;5092162;28;20564;-48
2022/01/08 01:06:46;;;;;;;19.77;13.18;;;;;;;;;;5093094;28;20384;-47
2022/01/08 01:09:12;;;;;;;23.33;14.43;;;;;;;;;;5107803;28;20028;-47
2022/01/08 01:11:38;;;;;;;21.40;14.57;;;;;;;;;;5073572;28;20044;-47
2022/01/08 01:14:05;;;;;;;22.70;14.07;;;;;;;;;;5073649;28;20150;-49
2022/01/08 01:16:31;;;;;;;24.88;14.07;;;;;;;;;;5091448;28;20047;-46
2022/01/08 01:18:59;;;;;;;21.40;14.00;;;;;;;;;;5091579;28;20401;-49
2022/01/08 01:21:25;;;;;;;22.25;13.80;;;;;;;;;;5091179;28;20120;-46
2022/01/08 01:23:55;;;;;;;24.33;14.52;;;;;;;;;;5091570;28;20488;-47
2022/01/08 01:26:24;;;;;;;21.38;14.23;;;;;;;;;;5091261;28;20075;-48
2022/01/08 01:47:28;;;;;;;23.92;15.80;;;;;;;;;;5091070;28;20512;-46
2022/01/08 01:49:55;;;;;;;23.02;15.65;;;;;;;;;;5090794;28;20400;-46
2022/01/08 01:52:21;;;;;;;23.80;16.27;;;;;;;;;;5090281;28;20043;-47
2022/01/08 01:54:47;;;;;;;26.95;16.35;;;;;;;;;;5091166;28;20119;-49
2022/01/08 01:57:13;;;;;;;26.02;16.23;;;;;;;;;;5073277;28;20117;-47
2022/01/08 01:59:40;;;;;;;27.77;17.55;;;;;;;;;;5091919;28;20090;-46
2022/01/08 02:02:07;;;;;;;28.75;17.77;;;;;;;;;;5091312;28;20040;-46
2022/01/08 02:04:33;;;;;;;31.98;18.63;;;;;;;;;;5090612;28;20066;-45
2022/01/08 02:07:02;;;;;;;33.08;19.75;;;;;;;;;;5090643;28;20251;-45
2022/01/08 02:09:37;;;;;;;28.58;17.80;;;;;;;;;;5090547;28;20040;-46
2022/01/08 02:12:15;;;;;;;29.52;19.10;;;;;;;;;;5072623;28;20234;-45
2022/01/08 02:14:45;;;;;;;28.40;17.95;;;;;;;;;;5090780;28;20040;-45
2022/01/08 02:17:14;;;;;;;30.80;18.20;;;;;;;;;;5090993;28;20517;-46
2022/01/08 02:19:43;;;;;;;30.60;17.60;;;;;;;;;;5090320;28;20047;-47
2022/01/08 02:22:20;;;;;;;27.92;16.83;;;;;;;;;;5090786;28;20111;-45
2022/01/08 02:24:47;;;;;;;30.15;17.85;;;;;;;;;;5090527;28;20047;-46
2022/01/08 02:27:13;;;;;;;25.48;16.77;;;;;;;;;;5090627;28;20073;-46
2022/01/08 02:29:39;;;;;;;28.42;17.30;;;;;;;;;;5090182;28;20036;-45
2022/01/08 02:32:08;;;;;;;26.33;17.58;;;;;;;;;;5090530;28;20036;-46
2022/01/08 02:34:35;;;;;;;26.85;17.40;;;;;;;;;;5090071;28;20052;-45
2022/01/08 02:37:01;;;;;;;27.60;16.52;;;;;;;;;;5090744;28;20051;-45
2022/01/08 02:39:30;;;;;;;28.70;16.92;;;;;;;;;;5090384;28;20047;-45
2022/01/08 02:41:58;;;;;;;24.00;16.25;;;;;;;;;;5092604;28;20113;-49
2022/01/08 02:44:25;;;;;;;28.25;17.08;;;;;;;;;;5094108;28;20040;-47
2022/01/08 02:46:52;;;;;;;26.88;17.30;;;;;;;;;;5075822;28;20075;-48
2022/01/08 02:49:18;;;;;;;27.23;16.08;;;;;;;;;;5094095;28;20040;-48
2022/01/08 02:51:45;;;;;;;23.95;14.20;;;;;;;;;;5094080;28;20401;-47
2022/01/08 02:54:11;;;;;;;24.08;13.50;;;;;;;;;;5094052;28;20070;-48
2022/01/08 02:56:38;;;;;;;19.05;12.55;;;;;;;;;;5076117;28;20042;-47
2022/01/08 02:59:05;;;;;;;18.27;11.95;;;;;;;;;;5093683;28;20120;-48
2022/01/08 03:01:31;;;;;;;19.42;11.93;;;;;;;;;;5093621;28;20050;-48
2022/01/08 03:03:57;;;;;;;21.65;12.43;;;;;;;;;;5093431;28;20086;-47
2022/01/08 03:06:23;;;;;;;19.80;12.32;;;;;;;;;;5093858;28;20035;-49
2022/01/08 03:08:50;;;;;;;15.43;11.30;;;;;;;;;;5075518;28;20193;-48
2022/01/08 03:11:16;;;;;;;56.78;29.13;;;;;;;;;;5093971;28;20044;-51
2022/01/08 03:13:42;;;;;;;33.63;18.10;;;;;;;;;;5093725;28;20119;-49
2022/01/08 03:16:11;;;;;;;53.97;24.58;;;;;;;;;;5093996;28;20460;-49
2022/01/08 03:18:38;;;;;;;20.60;12.95;;;;;;;;;;5093795;28;20040;-47
2022/01/08 03:21:18;;;;;;;25.17;14.05;;;;;;;;;;5074953;28;20048;-48
2022/01/08 03:23:53;;;;;;;29.98;15.95;;;;;;;;;;5093685;28;20051;-51
2022/01/08 03:26:21;;;;;;;28.10;13.15;;;;;;;;;;5093689;28;20063;-47
2022/01/08 03:28:47;;;;;;;18.27;10.60;;;;;;;;;;5075405;28;20035;-50
2022/01/08 03:31:14;;;;;;;19.15;11.38;;;;;;;;;;5074631;28;20040;-52
2022/01/08 03:33:40;;;;;;;16.90;11.20;;;;;;;;;;5093289;28;20385;-50
2022/01/08 03:36:06;;;;;;;23.48;12.30;;;;;;;;;;5092994;28;20040;-48
2022/01/08 03:38:34;;;;;;;21.50;12.05;;;;;;;;;;5093196;28;20040;-47
2022/01/08 03:41:00;;;;;;;24.58;13.85;;;;;;;;;;5092944;28;20076;-49
2022/01/08 03:43:26;;;;;;;40.92;19.13;;;;;;;;;;5074622;28;20453;-47
2022/01/08 03:45:52;;;;;;;53.55;25.33;;;;;;;;;;5092697;28;20078;-48
2022/01/08 03:51:15;;;;;;;78.72;34.28;;;;;;;;;;5037256;28;20251;-46
2022/01/08 03:53:42;;;;;;;43.83;23.13;;;;;;;;;;5074135;28;20039;-49
2022/01/08 03:56:08;;;;;;;34.90;19.15;;;;;;;;;;5092847;28;20068;-48
2022/01/08 03:58:34;;;;;;;39.92;20.98;;;;;;;;;;5092888;28;20048;-48
2022/01/08 04:01:01;;;;;;;38.25;19.55;;;;;;;;;;5092415;28;20036;-48
2022/01/08 04:03:27;;;;;;;31.40;17.55;;;;;;;;;;5092390;28;20501;-46
2022/01/08 04:05:53;;;;;;;26.75;15.45;;;;;;;;;;5074671;28;20044;-49
2022/01/08 04:08:19;;;;;;;24.05;14.70;;;;;;;;;;5092446;28;20370;-46
2022/01/08 04:10:45;;;;;;;28.25;15.23;;;;;;;;;;5074364;28;20492;-48
2022/01/08 04:13:19;;;;;;;27.77;16.10;;;;;;;;;;5092498;28;20055;-48
2022/01/08 04:15:51;;;;;;;27.52;15.48;;;;;;;;;;5074722;28;20047;-50
2022/01/08 04:18:23;;;;;;;25.75;16.02;;;;;;;;;;5092374;28;20110;-48
2022/01/08 04:23:37;;;;;;;30.52;18.45;;;;;;;;;;5093055;28;20125;-47
2022/01/08 04:26:06;;;;;;;25.45;16.38;;;;;;;;;;5074039;28;20097;-50
2022/01/08 04:28:35;;;;;;;27.05;14.35;;;;;;;;;;5073803;28;20397;-48
2022/01/08 04:31:01;;;;;;;27.08;14.63;;;;;;;;;;5091124;28;20105;-47
2022/01/08 04:33:27;;;;;;;31.75;14.93;;;;;;;;;;5091278;28;20047;-49
2022/01/08 04:35:55;;;;;;;23.85;14.88;;;;;;;;;;5091964;28;20781;-47
2022/01/08 04:38:24;;;;;;;23.98;13.90;;;;;;;;;;5091258;28;20122;-48
2022/01/08 04:40:53;;;;;;;28.27;17.25;;;;;;;;;;5091632;28;20062;-48
2022/01/08 04:43:20;;;;;;;24.73;13.80;;;;;;;;;;5072510;28;20040;-47
2022/01/08 04:45:55;;;;;;;20.63;13.55;;;;;;;;;;5091226;28;20089;-47
2022/01/08 04:48:24;;;;;;;23.27;14.43;;;;;;;;;;5073179;28;20295;-47
2022/01/08 04:50:53;;;;;;;28.48;15.45;;;;;;;;;;5091201;28;20040;-48
2022/01/08 04:53:22;;;;;;;26.35;14.77;;;;;;;;;;5090861;28;20040;-48
2022/01/08 04:55:54;;;;;;;29.35;15.63;;;;;;;;;;5090983;28;20040;-46
2022/01/08 04:58:20;;;;;;;29.45;16.52;;;;;;;;;;5072765;28;20126;-48
2022/01/08 05:00:46;;;;;;;24.90;15.25;;;;;;;;;;5090575;28;20059;-47
2022/01/08 05:03:15;;;;;;;29.08;15.35;;;;;;;;;;5072516;28;20055;-48
2022/01/08 05:05:41;;;;;;;24.08;13.73;;;;;;;;;;5071697;28;20040;-46
2022/01/08 05:08:10;;;;;;;21.50;13.43;;;;;;;;;;5090798;28;20048;-47
2022/01/08 05:10:36;;;;;;;23.55;15.00;;;;;;;;;;5090812;28;20032;-47
2022/01/08 05:13:06;;;;;;;28.48;15.45;;;;;;;;;;5090446;28;20036;-47
2022/01/08 05:15:33;;;;;;;24.55;14.57;;;;;;;;;;5090184;28;20150;-49
2022/01/08 05:18:07;;;;;;;25.08;15.18;;;;;;;;;;5090658;28;20127;-46
2022/01/08 05:20:38;;;;;;;25.63;14.93;;;;;;;;;;5090552;28;20069;-48
2022/01/08 05:23:13;;;;;;;24.52;15.20;;;;;;;;;;5090280;28;20040;-49
2022/01/08 05:25:48;;;;;;;23.63;14.75;;;;;;;;;;5090491;28;20081;-47
2022/01/08 05:28:14;;;;;;;22.27;12.85;;;;;;;;;;5072074;28;20090;-50
2022/01/08 05:30:43;;;;;;;27.48;13.50;;;;;;;;;;5090724;28;20044;-47
2022/01/08 05:33:09;;;;;;;19.00;13.13;;;;;;;;;;5093738;28;20036;-47
2022/01/08 05:35:38;;;;;;;26.13;13.07;;;;;;;;;;5108712;28;20200;-47
2022/01/08 05:38:05;;;;;;;23.83;13.20;;;;;;;;;;5102670;28;20084;-50
2022/01/08 05:40:34;;;;;;;21.58;13.10;;;;;;;;;;5110982;28;20658;-45
2022/01/08 05:43:05;;;;;;;24.75;13.43;;;;;;;;;;5110895;28;20111;-46
2022/01/08 05:45:32;;;;;;;23.25;12.38;;;;;;;;;;5093106;28;20071;-48
2022/01/08 05:48:01;;;;;;;21.50;12.70;;;;;;;;;;5111196;28;20085;-47
2022/01/08 05:50:27;;;;;;;23.25;13.45;;;;;;;;;;5111374;28;20063;-48
2022/01/08 05:52:53;;;;;;;21.80;12.57;;;;;;;;;;5110645;28;20044;-48
2022/01/08 05:55:25;;;;;;;22.65;13.18;;;;;;;;;;5110725;28;20040;-47
2022/01/08 05:57:54;;;;;;;24.33;13.80;;;;;;;;;;5110905;28;20035;-47
2022/01/08 06:00:23;;;;;;;24.60;14.02;;;;;;;;;;5110989;28;20039;-47
2022/01/08 06:02:49;;;;;;;23.77;13.27;;;;;;;;;;5110315;28;20082;-47
2022/01/08 06:05:15;;;;;;;27.40;14.05;;;;;;;;;;5110782;28;20067;-47
2022/01/08 06:07:50;;;;;;;21.67;13.15;;;;;;;;;;5111055;28;20048;-48
2022/01/08 06:10:25;;;;;;;20.00;12.65;;;;;;;;;;5111515;28;20047;-46
2022/01/08 06:12:53;;;;;;;25.55;13.93;;;;;;;;;;5111201;28;20459;-46
2022/01/08 06:15:22;;;;;;;25.73;13.88;;;;;;;;;;5111737;28;20480;-46
2022/01/08 06:17:58;;;;;;;24.83;14.05;;;;;;;;;;5115605;28;20035;-49
2022/01/08 06:20:26;;;;;;;22.30;13.70;;;;;;;;;;5110347;28;20055;-46
2022/01/08 06:22:53;;;;;;;26.73;13.70;;;;;;;;;;5096632;28;20387;-46
2022/01/08 06:25:22;;;;;;;25.85;13.60;;;;;;;;;;5114038;28;20069;-47
2022/01/08 06:27:54;;;;;;;26.15;13.25;;;;;;;;;;5094184;28;20043;-50
2022/01/08 06:30:26;;;;;;;24.27;13.85;;;;;;;;;;5076885;28;20466;-47
2022/01/08 06:32:55;;;;;;;24.52;12.38;;;;;;;;;;5094756;28;20492;-46
2022/01/08 06:35:27;;;;;;;21.63;12.43;;;;;;;;;;5076386;28;20126;-47
2022/01/08 06:37:53;;;;;;;20.75;12.32;;;;;;;;;;5094572;28;20040;-46
2022/01/08 06:40:22;;;;;;;24.83;13.75;;;;;;;;;;5094792;28;20040;-46
2022/01/08 06:42:48;;;;;;;26.98;14.32;;;;;;;;;;5093950;28;20044;-45
2022/01/08 06:45:14;;;;;;;29.25;14.57;;;;;;;;;;5094778;28;20181;-47
2022/01/08 06:47:46;;;;;;;21.13;12.57;;;;;;;;;;5059603;28;20047;-46
2022/01/08 06:50:13;;;;;;;21.05;12.20;;;;;;;;;;5094957;28;20032;-45
2022/01/08 06:52:42;;;;;;;20.20;13.35;;;;;;;;;;5094435;28;20071;-46
2022/01/08 06:55:11;;;;;;;22.92;13.57;;;;;;;;;;5076526;28;20036;-46
2022/01/08 06:57:44;;;;;;;26.15;13.48;;;;;;;;;;5094520;28;20036;-46
2022/01/08 07:00:12;;;;;;;21.30;12.60;;;;;;;;;;5076866;28;20044;-48
2022/01/08 07:02:39;;;;;;;25.77;13.55;;;;;;;;;;5095175;28;20452;-46
2022/01/08 07:05:07;;;;;;;24.90;12.95;;;;;;;;;;5077145;28;20485;-46
2022/01/08 07:07:33;;;;;;;29.25;14.88;;;;;;;;;;5094682;28;20127;-46
2022/01/08 07:10:02;;;;;;;21.08;14.07;;;;;;;;;;5094757;28;20071;-45
2022/01/08 07:12:32;;;;;;;27.58;13.23;;;;;;;;;;5075714;28;20070;-45
2022/01/08 07:15:01;;;;;;;26.02;13.07;;;;;;;;;;5076053;28;20489;-47
2022/01/08 07:17:30;;;;;;;30.38;15.95;;;;;;;;;;5093855;28;20040;-46
2022/01/08 07:20:02;;;;;;;22.23;14.05;;;;;;;;;;5093662;28;20036;-47
2022/01/08 07:22:40;;;;;;;25.58;13.60;;;;;;;;;;5093466;28;20079;-48
2022/01/08 07:25:11;;;;;;;27.67;16.45;;;;;;;;;;5075608;28;20036;-45
2022/01/08 07:27:47;;;;;;;26.55;15.00;;;;;;;;;;5074484;28;20269;-46
2022/01/08 07:30:13;;;;;;;29.15;15.88;;;;;;;;;;5093573;28;20429;-46
2022/01/08 07:32:43;;;;;;;34.30;18.55;;;;;;;;;;5093074;28;20097;-47
2022/01/08 07:35:14;;;;;;;28.63;17.65;;;;;;;;;;5073347;28;20126;-46
2022/01/08 07:37:41;;;;;;;30.23;17.95;;;;;;;;;;5079776;28;20079;-47
2022/01/08 07:40:10;;;;;;;25.52;14.77;;;;;;;;;;5083719;28;20055;-46
2022/01/08 07:42:40;;;;;;;20.23;13.68;;;;;;;;;;5099878;28;20545;-47
2022/01/08 07:45:07;;;;;;;29.05;15.02;;;;;;;;;;5101657;28;20512;-46
2022/01/08 07:47:36;;;;;;;26.63;17.00;;;;;;;;;;5112879;28;20039;-46
2022/01/08 07:50:07;;;;;;;28.30;16.35;;;;;;;;;;5095022;28;20042;-47
2022/01/08 07:52:40;;;;;;;25.23;13.85;;;;;;;;;;5080608;28;20505;-47
2022/01/08 07:55:06;;;;;;;23.75;13.15;;;;;;;;;;5095004;28;20062;-47
2022/01/08 07:57:35;;;;;;;20.30;12.20;;;;;;;;;;5112981;28;20188;-50
2022/01/08 08:00:05;;;;;;;21.13;12.25;;;;;;;;;;5078187;28;20557;-50
2022/01/08 08:02:33;;;;;;;27.23;13.43;;;;;;;;;;5111197;28;20396;-48
2022/01/08 08:05:00;;;;;;;24.13;13.63;;;;;;;;;;5093182;28;20138;-48
2022/01/08 08:07:31;;;;;;;23.50;14.10;;;;;;;;;;5090905;28;20051;-47
2022/01/08 08:09:57;;;;;;;25.05;14.85;;;;;;;;;;5093043;28;20075;-48
2022/01/08 08:12:23;;;;;;;22.67;13.65;;;;;;;;;;5104170;28;20048;-48
2022/01/08 08:14:50;;;;;;;25.73;15.13;;;;;;;;;;5100142;28;20040;-47
2022/01/08 08:17:16;;;;;;;26.38;15.27;;;;;;;;;;5112218;28;20412;-47
2022/01/08 08:19:42;;;;;;;22.20;15.40;;;;;;;;;;5093852;28;20092;-48
2022/01/08 08:22:09;;;;;;;26.38;14.57;;;;;;;;;;5092843;28;20050;-46
2022/01/08 08:24:38;;;;;;;27.27;14.20;;;;;;;;;;5112068;28;20173;-46
2022/01/08 08:27:07;;;;;;;23.55;13.88;;;;;;;;;;5111371;28;20202;-46
2022/01/08 08:29:34;;;;;;;23.25;14.05;;;;;;;;;;5111882;28;20050;-46
2022/01/08 08:32:00;;;;;;;24.77;14.23;;;;;;;;;;5111459;28;20051;-46
2022/01/08 08:34:26;;;;;;;27.02;13.90;;;;;;;;;;5111687;28;20067;-46
2022/01/08 08:36:52;;;;;;;23.48;14.80;;;;;;;;;;5111437;28;20043;-47
2022/01/08 08:39:18;;;;;;;18.38;12.40;;;;;;;;;;5111200;28;20039;-47
2022/01/08 08:41:44;;;;;;;24.48;13.50;;;;;;;;;;5110590;28;20553;-46
2022/01/08 08:44:13;;;;;;;26.80;14.43;;;;;;;;;;5110238;28;20481;-46
2022/01/08 08:46:39;;;;;;;21.52;13.02;;;;;;;;;;5110937;28;20119;-46
2022/01/08 08:49:08;;;;;;;27.65;14.80;;;;;;;;;;5112357;28;20044;-46
2022/01/08 08:51:37;;;;;;;23.55;14.40;;;;;;;;;;5111684;28;20043;-46
2022/01/08 08:54:06;;;;;;;22.90;14.70;;;;;;;;;;5112223;28;20126;-45
2022/01/08 08:56:34;;;;;;;26.75;14.60;;;;;;;;;;5111939;28;20043;-46
2022/01/08 08:59:01;;;;;;;26.70;15.45;;;;;;;;;;5111315;28;20035;-46
2022/01/08 09:01:30;;;;;;;28.15;15.60;;;;;;;;;;5110964;28;20039;-46
2022/01/08 09:03:56;;;;;;;26.35;14.57;;;;;;;;;;5111319;28;20221;-46
2022/01/08 09:06:22;;;;;;;28.70;15.70;;;;;;;;;;5105098;28;20504;-47
2022/01/08 09:08:49;;;;;;;21.98;14.85;;;;;;;;;;5090827;28;20036;-46
2022/01/08 09:11:15;;;;;;;25.98;16.40;;;;;;;;;;5090328;28;20092;-46
2022/01/08 09:13:41;;;;;;;25.52;15.32;;;;;;;;;;5090430;28;20384;-46
2022/01/08 09:16:13;;;;;;;25.25;15.48;;;;;;;;;;5103028;28;20035;-48
2022/01/08 09:18:41;;;;;;;23.75;16.08;;;;;;;;;;5110392;28;20051;-46
2022/01/08 09:21:09;;;;;;;25.13;15.65;;;;;;;;;;5110137;28;20088;-46
2022/01/08 09:23:37;;;;;;;27.20;16.10;;;;;;;;;;5110934;28;20035;-46
2022/01/08 09:26:03;;;;;;;25.63;16.35;;;;;;;;;;5109214;28;20044;-47
2022/01/08 09:28:38;;;;;;;23.08;14.95;;;;;;;;;;5104610;28;20114;-46
2022/01/08 09:31:07;;;;;;;28.17;16.33;;;;;;;;;;5110340;28;20480;-46
2022/01/08 09:33:34;;;;;;;24.40;15.07;;;;;;;;;;5110025;28;20086;-47
2022/01/08 09:36:00;;;;;;;23.38;14.50;;;;;;;;;;5110205;28;20043;-45
2022/01/08 09:38:26;;;;;;;29.23;22.17;;;;;;;;;;5107463;28;20456;-45
2022/01/08 09:40:55;;;;;;;24.33;16.35;;;;;;;;;;5110414;28;20051;-46
2022/01/08 09:43:25;;;;;;;30.17;21.10;;;;;;;;;;5108357;28;20035;-47
2022/01/08 09:45:53;;;;;;;30.17;19.27;;;;;;;;;;5092068;28;20122;-45
2022/01/08 09:48:19;;;;;;;29.88;18.60;;;;;;;;;;5110519;28;20039;-45
2022/01/08 09:50:48;;;;;;;21.00;14.50;;;;;;;;;;5110322;28;20047;-45
2022/01/08 09:53:14;;;;;;;18.67;14.85;;;;;;;;;;5109994;28;20398;-45
2022/01/08 09:55:40;;;;;;;22.65;15.70;;;;;;;;;;5091655;28;20123;-49
2022/01/08 09:58:15;;;;;;;15.50;11.80;;;;;;;;;;5109569;28;20040;-47
2022/01/08 10:00:44;;;;;;;21.38;14.63;;;;;;;;;;5109755;28;20456;-46
2022/01/08 10:03:35;;;;;;;18.42;12.27;;;;;;;;;;5107666;28;20144;-45
2022/01/08 10:06:01;;;;;;;16.17;11.25;;;;;;;;;;5109629;28;20138;-46
2022/01/08 10:08:29;;;;;;;17.85;10.98;;;;;;;;;;5110114;28;20036;-45
2022/01/08 10:11:02;;;;;;;12.88;10.45;;;;;;;;;;5109724;28;20036;-45
2022/01/08 10:13:33;;;;;;;13.88;10.90;;;;;;;;;;5109785;28;20050;-49
2022/01/08 10:18:45;;;;;;;17.83;11.57;;;;;;;;;;5089613;28;20044;-45
2022/01/08 10:21:19;;;;;;;16.92;10.85;;;;;;;;;;5089470;28;20040;-45
2022/01/08 10:23:49;;;;;;;17.15;11.35;;;;;;;;;;5089470;28;20039;-47
2022/01/08 10:26:35;;;;;;;14.05;11.52;;;;;;;;;;5089364;28;20040;-45
2022/01/08 10:29:02;;;;;;;17.08;10.95;;;;;;;;;;5089113;28;20032;-46
2022/01/08 10:31:55;;;;;;;13.68;11.23;;;;;;;;;;5069414;28;20051;-48
2022/01/08 10:34:21;;;;;;;15.40;10.60;;;;;;;;;;5089858;28;20502;-45
2022/01/08 10:37:04;;;;;;;15.52;11.40;;;;;;;;;;5090595;28;20084;-46
2022/01/08 10:39:34;;;;;;;15.63;10.48;;;;;;;;;;5073086;28;20558;-45
2022/01/08 10:42:08;;;;;;;13.45;10.85;;;;;;;;;;5089927;28;20097;-46
2022/01/08 10:44:34;;;;;;;14.32;10.10;;;;;;;;;;5090872;28;20074;-45
2022/01/08 10:47:02;;;;;;;13.10;10.23;;;;;;;;;;5090762;28;20081;-45
2022/01/08 10:49:41;;;;;;;16.75;11.23;;;;;;;;;;5090796;28;20409;-45
2022/01/08 10:52:33;;;;;;;16.27;10.30;;;;;;;;;;5090694;28;20051;-45
2022/01/08 10:55:03;;;;;;;14.68;10.02;;;;;;;;;;5079280;28;20132;-46
2022/01/08 10:57:33;;;;;;;15.77;10.55;;;;;;;;;;5096328;28;20188;-48
2022/01/08 10:59:59;;;;;;;20.08;11.30;;;;;;;;;;5109350;28;20484;-48
2022/01/08 11:02:29;;;;;;;15.23;11.05;;;;;;;;;;5106990;28;20051;-49
2022/01/08 11:04:55;;;;;;;15.38;10.90;;;;;;;;;;5112053;28;20039;-50
2022/01/08 11:07:21;;;;;;;16.23;10.88;;;;;;;;;;5112650;28;20063;-47
2022/01/08 11:10:00;;;;;;;14.30;9.52;;;;;;;;;;5073308;28;20036;-48
2022/01/08 11:12:34;;;;;;;14.95;9.90;;;;;;;;;;5101475;28;20052;-50
2022/01/08 11:17:50;;;;;;;17.95;11.20;;;;;;;;;;5093479;28;20547;-50
2022/01/08 11:20:16;;;;;;;15.68;11.85;;;;;;;;;;5104937;28;20115;-46
2022/01/08 11:22:46;;;;;;;15.55;10.77;;;;;;;;;;5111795;28;20540;-47
2022/01/08 11:25:16;;;;;;;18.48;12.52;;;;;;;;;;5093923;28;20038;-48
2022/01/08 11:28:01;;;;;;;17.80;11.40;;;;;;;;;;5110302;28;20071;-47
2022/01/08 11:30:28;;;;;;;16.48;11.10;;;;;;;;;;5100725;28;20078;-49
2022/01/08 11:33:02;;;;;;;16.58;12.30;;;;;;;;;;5111751;28;20044;-48
2022/01/08 11:35:36;;;;;;;20.77;13.40;;;;;;;;;;5103331;28;20049;-47
2022/01/08 11:38:04;;;;;;;16.92;12.82;;;;;;;;;;5110867;28;20523;-47
2022/01/08 11:40:30;;;;;;;16.80;12.70;;;;;;;;;;5111995;28;20040;-47
2022/01/08 11:43:04;;;;;;;16.40;14.13;;;;;;;;;;5111198;28;20310;-47
2022/01/08 11:45:31;;;;;;;19.33;13.65;;;;;;;;;;5092337;28;20499;-51
2022/01/08 11:48:02;;;;;;;21.02;13.77;;;;;;;;;;5114110;28;20027;-49
2022/01/08 11:50:30;;;;;;;19.92;15.18;;;;;;;;;;5115223;28;20040;-50
2022/01/08 11:53:31;;;;;;;16.98;14.43;;;;;;;;;;5115264;28;20040;-48
2022/01/08 11:55:57;;;;;;;22.30;16.42;;;;;;;;;;5031933;28;20530;-48
2022/01/08 11:58:23;;;;;;;17.55;15.43;;;;;;;;;;5098270;28;20051;-48
2022/01/08 12:00:50;;;;;;;22.17;16.63;;;;;;;;;;5114260;28;20043;-49
2022/01/08 12:03:33;;;;;;;16.17;14.02;;;;;;;;;;5114417;28;20042;-53
2022/01/08 12:06:19;;;;;;;24.48;16.45;;;;;;;;;;5114516;28;20040;-51
2022/01/08 12:09:20;;;;;;;20.63;17.05;;;;;;;;;;5096077;28;20040;-47
2022/01/08 12:11:46;;;;;;;22.60;18.17;;;;;;;;;;5101131;28;20489;-50
2022/01/08 12:14:23;;;;;;;21.85;17.20;;;;;;;;;;5100216;28;20066;-46
2022/01/08 12:16:51;;;;;;;26.13;19.83;;;;;;;;;;5113889;28;20122;-47
2022/01/08 12:19:29;;;;;;;23.88;16.63;;;;;;;;;;5113812;28;20039;-48
2022/01/08 12:21:55;;;;;;;28.10;18.30;;;;;;;;;;5112956;28;20516;-49
2022/01/08 12:24:27;;;;;;;25.92;18.30;;;;;;;;;;5092255;28;20035;-48
2022/01/08 12:26:57;;;;;;;25.10;17.02;;;;;;;;;;5112186;28;20493;-47
2022/01/08 12:29:43;;;;;;;26.23;19.63;;;;;;;;;;5110661;28;20108;-47
2022/01/08 12:32:35;;;;;;;26.42;18.52;;;;;;;;;;5104426;28;20443;-51
2022/01/08 12:38:23;;;;;;;28.48;18.02;;;;;;;;;;5077405;28;20051;-46
2022/01/08 12:40:50;;;;;;;33.15;21.73;;;;;;;;;;5111729;28;20092;-46
2022/01/08 12:43:24;;;;;;;32.20;21.98;;;;;;;;;;5112294;28;20035;-50
2022/01/08 12:45:54;;;;;;;34.25;21.85;;;;;;;;;;5112377;28;20091;-45
2022/01/08 12:48:23;;;;;;;32.20;21.08;;;;;;;;;;5112337;28;20042;-45
2022/01/08 12:51:02;;;;;;;30.00;19.13;;;;;;;;;;5093528;28;20036;-46
2022/01/08 12:53:35;;;;;;;32.78;20.65;;;;;;;;;;5112162;28;20124;-45
2022/01/08 12:56:05;;;;;;;37.22;23.58;;;;;;;;;;5111676;28;20044;-49
2022/01/08 12:58:46;;;;;;;35.42;22.23;;;;;;;;;;5092170;28;20035;-46
2022/01/08 13:01:19;;;;;;;38.00;23.35;;;;;;;;;;5101317;28;20050;-46
2022/01/08 13:03:50;;;;;;;33.67;21.50;;;;;;;;;;5081416;28;20036;-46
2022/01/08 13:06:17;;;;;;;33.95;21.73;;;;;;;;;;5097775;28;20035;-46
2022/01/08 13:08:48;;;;;;;33.50;20.63;;;;;;;;;;5083815;28;20063;-49
2022/01/08 13:11:25;;;;;;;31.08;22.25;;;;;;;;;;5101509;28;20046;-48
2022/01/08 13:13:57;;;;;;;31.90;22.27;;;;;;;;;;5086005;28;20489;-46
2022/01/08 13:16:28;;;;;;;32.25;20.10;;;;;;;;;;5101927;28;20536;-48
2022/01/08 13:19:10;;;;;;;29.90;19.55;;;;;;;;;;5078491;28;20518;-47
2022/01/08 13:21:41;;;;;;;34.05;21.05;;;;;;;;;;5104531;28;20122;-46
2022/01/08 13:24:22;;;;;;;30.02;17.80;;;;;;;;;;5090023;28;20516;-47
2022/01/08 13:26:50;;;;;;;31.65;19.70;;;;;;;;;;5091559;28;20043;-47
2022/01/08 13:29:28;;;;;;;32.17;18.80;;;;;;;;;;5073645;28;20108;-48
2022/01/08 13:31:59;;;;;;;32.60;19.20;;;;;;;;;;5073522;28;20061;-48
2022/01/08 13:34:26;;;;;;;30.92;18.83;;;;;;;;;;5091505;28;20043;-47
2022/01/08 13:36:55;;;;;;;28.30;18.40;;;;;;;;;;5090651;28;20433;-46
2022/01/08 13:39:45;;;;;;;27.23;16.55;;;;;;;;;;5073319;28;20044;-48
2022/01/08 13:42:18;;;;;;;27.75;17.08;;;;;;;;;;5085331;28;20055;-47
2022/01/08 13:44:44;;;;;;;;;;;;;;;;;;5073667;28;20141;-48
2022/01/08 13:47:17;;;;;;;24.27;15.38;;;;;;;;;;5089721;28;20022;-44
2022/01/08 13:49:46;;;;;;;27.65;17.27;;;;;;;;;;5073552;28;20500;-50
2022/01/08 13:52:16;;;;;;;28.67;18.52;;;;;;;;;;5091893;28;20071;-47
2022/01/08 13:54:43;;;;;;;29.30;17.60;;;;;;;;;;5073725;28;20114;-48
2022/01/08 13:57:13;;;;;;;28.83;17.38;;;;;;;;;;5091194;28;20048;-47
2022/01/08 13:59:39;;;;;;;28.02;17.67;;;;;;;;;;5073014;28;20040;-48
2022/01/08 14:02:05;;;;;;;26.75;17.45;;;;;;;;;;5090890;28;20090;-48
2022/01/08 14:04:32;;;;;;;27.73;16.77;;;;;;;;;;5090581;28;20123;-47
2022/01/08 14:06:58;;;;;;;29.48;17.42;;;;;;;;;;5072595;28;20058;-48
2022/01/08 14:09:24;;;;;;;32.05;18.48;;;;;;;;;;5090730;28;20044;-48
2022/01/08 14:11:50;;;;;;;28.20;17.13;;;;;;;;;;5072578;28;20044;-48
2022/01/08 14:14:19;;;;;;;26.92;16.58;;;;;;;;;;5073051;28;20325;-48
2022/01/08 14:16:47;;;;;;;29.23;17.10;;;;;;;;;;5072899;28;20497;-47
2022/01/08 14:19:15;;;;;;;25.88;16.13;;;;;;;;;;5073313;28;20562;-50
2022/01/08 14:21:53;;;;;;;23.80;15.25;;;;;;;;;;5090856;28;20051;-48
2022/01/08 14:24:23;;;;;;;26.30;15.80;;;;;;;;;;5091229;28;20085;-48
2022/01/08 14:26:59;;;;;;;25.60;14.98;;;;;;;;;;5091324;28;20045;-50
2022/01/08 14:29:25;;;;;;;25.23;14.35;;;;;;;;;;5090985;28;20040;-47
2022/01/08 14:31:56;;;;;;;22.27;14.40;;;;;;;;;;5091175;28;20044;-46
2022/01/08 14:34:22;;;;;;;20.83;13.70;;;;;;;;;;5073254;28;20417;-46
2022/01/08 14:36:57;;;;;;;29.13;14.35;;;;;;;;;;5092729;28;20115;-47
2022/01/08 14:39:32;;;;;;;23.65;12.70;;;;;;;;;;5095173;28;20042;-47
2022/01/08 14:42:00;;;;;;;20.77;12.48;;;;;;;;;;5077163;28;20044;-46
2022/01/08 14:44:27;;;;;;;23.30;13.27;;;;;;;;;;5094954;28;20043;-48
2022/01/08 14:46:54;;;;;;;20.27;13.35;;;;;;;;;;5094864;28;20458;-47
2022/01/08 14:49:23;;;;;;;23.98;14.55;;;;;;;;;;5076249;28;20032;-48
2022/01/08 14:51:50;;;;;;;23.48;12.82;;;;;;;;;;5094576;28;20040;-48
2022/01/08 14:54:33;;;;;;;22.58;13.80;;;;;;;;;;5094176;28;20055;-50
2022/01/08 14:57:00;;;;;;;;;;;;;;;;;;5094401;28;20662;-47
2022/01/08 14:59:26;;;;;;;21.15;12.32;;;;;;;;;;5093541;28;20483;-47
2022/01/08 15:01:54;;;;;;;18.73;11.20;;;;;;;;;;5093416;28;20055;-51
2022/01/08 15:04:20;;;;;;;18.42;10.77;;;;;;;;;;5094040;28;20040;-49